VAM | Vabird-VBD

Virtual Vabird! Aerolínea Virtual de habla hispana, desde 2011




 INFORMACIÓN METAR y TAF
METAR FOR GCFV
ADDS - METARS form results

(1622 UTC 08 March 2021)
Data provider http://aviationweather.gov/metar/data/
 
METAR text: GCFV 081600Z 05012KT 9999 SCT035 BKN045 19/13 Q1017
Conditions at: GCFV (FUERTEVENTURA AR, ES) observed 1600 UTC 08 March 2021
Temperature: 19.0°C (66°F)
Dewpoint: 13.0°C (55°F) [RH = 68%]
Pressure (altimeter): 30.03 inches Hg (1017.0 mb)
Winds: from the NE (50 degrees) at 14 MPH (12 knots; 6.2 m/s)
Visibility: 6 or more miles (10+ km)
Ceiling: 4500 feet AGL
Clouds: scattered clouds at 3500 feet AGL
broken clouds at 4500 feet AGL
Weather: no significant weather observed at this time

METAR text: GCFV 081530Z 05014KT 9999 SCT035 BKN045 20/13 Q1018
Conditions at: GCFV (FUERTEVENTURA AR, ES) observed 1530 UTC 08 March 2021
Temperature: 20.0°C (68°F)
Dewpoint: 13.0°C (55°F) [RH = 64%]
Pressure (altimeter): 30.06 inches Hg (1018.0 mb)
Winds: from the NE (50 degrees) at 16 MPH (14 knots; 7.2 m/s)
Visibility: 6 or more miles (10+ km)
Ceiling: 4500 feet AGL
Clouds: scattered clouds at 3500 feet AGL
broken clouds at 4500 feet AGL
Weather: no significant weather observed at this time

Forecast for: GCFV (FUERTEVENTURA AR, ES)
Text: TAF GCFV 081400Z 0815/0915 05013KT 9999 SCT030 TX22/0914Z TN16/0907Z
Forecast period: 1500 to 1700 UTC 08 March 2021
Forecast type: FROM: standard forecast or significant change
Winds: from the NE (50 degrees) at 15 MPH (13 knots; 6.7 m/s)
Visibility: 6 or more miles (10+ km)
Ceiling: at least 12,000 feet AGL
Clouds: scattered clouds at 3000 feet AGL
Weather: no significant weather forecast for this period
Text: BECMG 0817/0819 35010KT
Forecast period: 1700 UTC 08 March 2021 to 0800 UTC 09 March 2021
Forecast type: BECOMING: Conditions expected to become as follows by 1900 UTC 08 March 2021
Winds: from the N (350 degrees) at 12 MPH (10 knots; 5.1 m/s)
Visibility: 6 or more miles (10+ km)
Ceiling: at least 12,000 feet AGL
Clouds: scattered clouds at 3000 feet AGL
Weather: no significant weather forecast for this period
Text: BECMG 0908/0910 02020KT
Forecast period: 0800 to 1500 UTC 09 March 2021
Forecast type: BECOMING: Conditions expected to become as follows by 1000 UTC 09 March 2021
Winds: from the NNE (20 degrees) at 23 MPH (20 knots; 10.3 m/s)
Visibility: 6 or more miles (10+ km)
Ceiling: at least 12,000 feet AGL
Clouds: scattered clouds at 3000 feet AGL
Weather: no significant weather forecast for this period
Text: PROB30
Forecast period: 0900 to 1500 UTC 09 March 2021
Forecast type: TEMPORARY: The following changes expected for less than half the time period
Winds: from the NNE (20 degrees) at 21 MPH (18 knots; 9.3 m/s)
gusting to 32 MPH (28 knots; 14.4 m/s)
Visibility: missing
Ceiling: unknown
Clouds: missing
Weather: no significant weather forecast for this period

 MAPA DE AEROPUERTO

 INFORMACIÓN DE PISTA